Time;durP1;ratioP1;P1;durP2;ratioP2;P2;SDS_P1;SDS_P2;PMS_P1;PMS_P2;Temp;Humidity;BMP_temperature;BMP_pressure;BME280_temperature;BME280_humidity;BME280_pressure;Samples;Min_cycle;Max_cycle;Signal;HPM_P1;HPM_P2
2023/08/29 00:00:17;;;;;;;1999.90;999.90;;;12.60;99.90;;;;;;5094095;28;20047;-73
2023/08/29 00:02:42;;;;;;;1999.90;999.90;;;12.60;99.90;;;;;;5106576;28;20039;-72
2023/08/29 00:05:12;;;;;;;1999.90;999.90;;;12.30;99.90;;;;;;5095382;28;20032;-73
2023/08/29 00:07:38;;;;;;;1999.90;999.90;;;12.40;99.90;;;;;;5088061;28;20073;-73
2023/08/29 00:10:04;;;;;;;1999.90;999.90;;;12.20;99.90;;;;;;5082719;28;20548;-73
2023/08/29 00:12:34;;;;;;;1999.90;999.90;;;12.20;99.90;;;;;;5086713;28;20043;-72
2023/08/29 00:15:00;;;;;;;1999.90;999.90;;;12.10;99.90;;;;;;5086931;28;20100;-72
2023/08/29 00:17:27;;;;;;;1999.90;999.90;;;12.20;99.90;;;;;;5085434;28;20044;-72
2023/08/29 00:19:55;;;;;;;1999.90;999.90;;;12.00;99.90;;;;;;5084600;28;20105;-73
2023/08/29 00:22:21;;;;;;;1999.90;999.90;;;11.90;99.90;;;;;;5089989;28;20036;-72
2023/08/29 00:24:48;;;;;;;1999.90;999.90;;;12.10;99.90;;;;;;5088376;28;20689;-72
2023/08/29 00:27:14;;;;;;;1999.90;999.90;;;12.00;99.90;;;;;;5086336;28;20032;-73
2023/08/29 00:29:42;;;;;;;1999.90;999.90;;;12.10;99.90;;;;;;5092088;28;20046;-73
2023/08/29 00:32:08;;;;;;;1999.90;999.90;;;11.90;99.90;;;;;;5088713;28;20024;-72
2023/08/29 00:34:34;;;;;;;1999.90;999.90;;;12.00;99.90;;;;;;5096780;28;20028;-72
2023/08/29 00:36:59;;;;;;;1999.90;999.90;;;11.90;99.90;;;;;;5089336;28;20024;-72
2023/08/29 00:39:25;;;;;;;1999.90;999.90;;;11.80;99.90;;;;;;5092009;28;20605;-73
2023/08/29 00:41:51;;;;;;;1999.90;999.90;;;11.80;99.90;;;;;;5085699;28;20039;-72
2023/08/29 00:44:17;;;;;;;1999.90;999.90;;;11.70;99.90;;;;;;5089545;28;20047;-73
2023/08/29 00:46:44;;;;;;;1999.90;999.90;;;11.80;99.90;;;;;;5087839;28;20033;-72
2023/08/29 00:49:11;;;;;;;1999.90;999.90;;;11.80;99.90;;;;;;5086898;28;20052;-72
2023/08/29 00:51:38;;;;;;;1999.90;999.90;;;11.80;99.90;;;;;;5088793;28;20032;-72
2023/08/29 00:54:04;;;;;;;1999.90;999.90;;;11.80;99.90;;;;;;5084546;28;20185;-73
2023/08/29 00:56:30;;;;;;;1999.90;999.90;;;11.80;99.90;;;;;;5088485;28;20032;-73
2023/08/29 00:58:56;;;;;;;1999.90;999.90;;;11.80;99.90;;;;;;5089032;28;21290;-73
2023/08/29 01:01:21;;;;;;;1999.90;999.90;;;11.80;99.90;;;;;;5084903;28;20450;-72
2023/08/29 01:03:47;;;;;;;1999.90;999.90;;;11.70;99.90;;;;;;5087842;28;20028;-72
2023/08/29 01:06:14;;;;;;;1999.90;999.90;;;11.70;99.90;;;;;;5089422;28;20028;-73
2023/08/29 01:08:40;;;;;;;1999.90;999.90;;;11.80;99.90;;;;;;5089112;28;20028;-72
2023/08/29 01:11:20;;;;;;;1999.90;999.90;;;11.70;99.90;;;;;;5086987;28;20489;-73
2023/08/29 01:14:25;;;;;;;1999.90;999.90;;;11.70;99.90;;;;;;5089714;28;20383;-73
2023/08/29 01:17:07;;;;;;;1999.90;999.90;;;11.70;99.90;;;;;;5077212;28;20043;-73
2023/08/29 01:19:35;;;;;;;1999.90;999.90;;;11.60;99.90;;;;;;5089042;28;20063;-73
2023/08/29 01:22:25;;;;;;;1999.90;999.90;;;11.60;99.90;;;;;;5089261;28;20059;-72
2023/08/29 01:24:58;;;;;;;1999.90;999.90;;;11.60;99.90;;;;;;5084383;28;20063;-73
2023/08/29 01:27:25;;;;;;;1999.90;999.90;;;11.60;99.90;;;;;;5077448;28;20475;-73
2023/08/29 01:29:51;;;;;;;1999.90;999.90;;;11.60;99.90;;;;;;5091570;28;20028;-73
2023/08/29 01:32:18;;;;;;;1999.90;999.90;;;11.60;99.90;;;;;;5088270;28;20505;-72
2023/08/29 01:34:44;;;;;;;1999.90;999.90;;;11.70;99.90;;;;;;5089815;28;20554;-73
2023/08/29 01:37:09;;;;;;;1999.90;999.90;;;11.60;99.90;;;;;;5083600;28;20047;-72
2023/08/29 01:39:36;;;;;;;1999.90;999.90;;;11.60;99.90;;;;;;5091126;28;20027;-72
2023/08/29 01:42:02;;;;;;;1999.90;999.90;;;11.60;99.90;;;;;;5090925;28;20039;-73
2023/08/29 01:44:28;;;;;;;1999.90;999.90;;;11.70;99.90;;;;;;5091006;28;20032;-73
2023/08/29 01:46:53;;;;;;;1999.90;999.90;;;11.80;99.90;;;;;;5092993;28;20474;-73
2023/08/29 01:49:19;;;;;;;1999.90;999.90;;;11.80;99.90;;;;;;5089818;28;20482;-72
2023/08/29 01:51:45;;;;;;;1999.90;999.90;;;11.80;99.90;;;;;;5090998;28;20056;-73
2023/08/29 01:54:11;;;;;;;1999.90;999.90;;;11.90;99.90;;;;;;5092837;28;20458;-73
2023/08/29 01:56:39;;;;;;;1999.90;999.90;;;11.80;99.90;;;;;;5092859;28;20039;-73
2023/08/29 01:59:06;;;;;;;1999.90;999.90;;;11.70;99.90;;;;;;5090086;28;20056;-73
2023/08/29 02:01:32;;;;;;;1999.90;999.90;;;11.80;99.90;;;;;;5091131;28;20058;-73
2023/08/29 02:03:58;;;;;;;1999.90;999.90;;;11.80;99.90;;;;;;5090392;28;20039;-74
2023/08/29 02:06:23;;;;;;;1999.90;999.90;;;11.80;99.90;;;;;;5091981;28;20036;-73
2023/08/29 02:08:49;;;;;;;1999.90;999.90;;;11.90;99.90;;;;;;5092029;28;20031;-73
2023/08/29 02:11:15;;;;;;;1999.90;999.90;;;11.80;99.90;;;;;;5090216;28;20122;-73
2023/08/29 02:13:40;;;;;;;1999.90;999.90;;;11.90;99.90;;;;;;5092942;28;20056;-73
2023/08/29 02:16:06;;;;;;;1999.90;999.90;;;11.80;99.90;;;;;;5092939;28;20062;-73
2023/08/29 02:18:32;;;;;;;1999.90;999.90;;;11.80;99.90;;;;;;5088904;28;20126;-73
2023/08/29 02:20:57;;;;;;;1999.90;999.90;;;11.70;99.90;;;;;;5091038;28;20512;-73
2023/08/29 02:23:23;;;;;;;1999.90;999.90;;;11.70;99.90;;;;;;5074284;28;20036;-73
2023/08/29 02:26:00;;;;;;;1999.90;999.90;;;11.80;99.90;;;;;;5088482;28;20033;-74
2023/08/29 02:28:26;;;;;;;1999.90;999.90;;;11.70;99.90;;;;;;5092603;28;20089;-72
2023/08/29 02:30:52;;;;;;;1999.90;999.90;;;11.80;99.90;;;;;;5087308;28;20032;-73
2023/08/29 02:33:17;;;;;;;1999.90;999.90;;;11.80;99.90;;;;;;5091759;28;20040;-73
2023/08/29 02:35:43;;;;;;;1999.90;999.90;;;11.70;99.90;;;;;;5090245;28;20475;-73
2023/08/29 02:38:09;;;;;;;1999.90;999.90;;;11.90;99.90;;;;;;5080481;28;20039;-73
2023/08/29 02:40:35;;;;;;;1999.90;999.90;;;11.80;99.90;;;;;;5088923;28;20139;-73
2023/08/29 02:43:01;;;;;;;1999.90;999.90;;;11.80;99.90;;;;;;5092336;28;20725;-73
2023/08/29 02:45:26;;;;;;;1999.90;999.90;;;11.80;99.90;;;;;;5084258;28;20092;-74
2023/08/29 02:47:52;;;;;;;1999.90;999.90;;;11.70;99.90;;;;;;5079544;28;20028;-74
2023/08/29 02:50:17;;;;;;;1999.90;999.90;;;11.60;99.90;;;;;;5077277;28;20552;-73
2023/08/29 02:52:43;;;;;;;1999.90;999.90;;;11.80;99.90;;;;;;5088523;28;20028;-72
2023/08/29 02:55:09;;;;;;;1999.90;999.90;;;11.70;99.90;;;;;;5091536;28;20056;-72
2023/08/29 02:57:34;;;;;;;1999.90;999.90;;;11.80;99.90;;;;;;5092705;28;20036;-73
2023/08/29 03:00:00;;;;;;;1999.90;999.90;;;11.60;99.90;;;;;;5086714;28;20032;-72
2023/08/29 03:02:26;;;;;;;1999.90;999.90;;;11.70;99.90;;;;;;5074019;28;20040;-73
2023/08/29 03:04:51;;;;;;;1999.90;999.90;;;11.70;99.90;;;;;;5090755;28;20024;-73
2023/08/29 03:07:17;;;;;;;1999.90;999.90;;;11.70;99.90;;;;;;5091465;28;20111;-72
2023/08/29 03:09:42;;;;;;;1999.90;999.90;;;11.70;99.90;;;;;;5089118;28;20024;-72
2023/08/29 03:12:08;;;;;;;1999.90;999.90;;;11.70;99.90;;;;;;5091778;28;20447;-73
2023/08/29 03:14:34;;;;;;;1999.90;999.90;;;11.80;99.90;;;;;;5089900;28;20028;-73
2023/08/29 03:16:59;;;;;;;1999.90;999.90;;;11.70;99.90;;;;;;5088381;28;20024;-72
2023/08/29 03:19:25;;;;;;;1999.90;999.90;;;11.70;99.90;;;;;;5091560;28;20050;-72
2023/08/29 03:21:50;;;;;;;1999.90;999.90;;;11.60;99.90;;;;;;5089592;28;20060;-75
2023/08/29 03:24:16;;;;;;;1999.90;999.90;;;11.60;99.90;;;;;;5090797;28;20131;-72
2023/08/29 03:26:42;;;;;;;1999.90;999.90;;;11.70;99.90;;;;;;5088545;28;20032;-73
2023/08/29 03:29:07;;;;;;;1999.90;999.90;;;11.80;99.90;;;;;;5091026;28;20032;-73
2023/08/29 03:31:33;;;;;;;1999.90;999.90;;;11.80;99.90;;;;;;5092264;28;20036;-72
2023/08/29 03:33:59;;;;;;;1999.90;999.90;;;11.70;99.90;;;;;;5073361;28;20124;-73
2023/08/29 03:36:25;;;;;;;1999.90;999.90;;;11.60;99.90;;;;;;5090456;28;20119;-74
2023/08/29 03:38:50;;;;;;;1999.90;999.90;;;11.50;99.90;;;;;;5087231;28;20085;-73
2023/08/29 03:41:16;;;;;;;1999.90;999.90;;;11.60;99.90;;;;;;5082273;28;20051;-74
2023/08/29 03:43:42;;;;;;;1999.90;999.90;;;11.60;99.90;;;;;;5087421;28;20037;-73
2023/08/29 03:46:08;;;;;;;1999.90;999.90;;;11.50;99.90;;;;;;5087335;28;20123;-72
2023/08/29 03:48:35;;;;;;;1999.90;999.90;;;11.60;99.90;;;;;;5085167;28;20024;-74
2023/08/29 03:51:06;;;;;;;1999.90;999.90;;;11.50;99.90;;;;;;5090257;28;20073;-73
2023/08/29 03:53:36;;;;;;;1999.90;999.90;;;11.40;99.90;;;;;;5090538;28;20045;-72
2023/08/29 03:56:04;;;;;;;1999.90;999.90;;;11.60;99.90;;;;;;5090649;28;20085;-74
2023/08/29 03:58:30;;;;;;;1999.90;999.90;;;11.60;99.90;;;;;;5087743;28;20321;-72
2023/08/29 04:00:56;;;;;;;1999.90;999.90;;;11.60;99.90;;;;;;5088625;28;20495;-73
2023/08/29 04:03:22;;;;;;;1999.90;999.90;;;11.50;99.90;;;;;;5089919;28;20032;-73
2023/08/29 04:05:48;;;;;;;1999.90;999.90;;;11.40;99.90;;;;;;5089962;28;20401;-73
2023/08/29 04:08:13;;;;;;;1999.90;999.90;;;11.50;99.90;;;;;;5069256;28;20033;-73
2023/08/29 04:10:40;;;;;;;1999.90;999.90;;;11.40;99.90;;;;;;5089905;28;20024;-73
2023/08/29 04:13:06;;;;;;;1999.90;999.90;;;11.50;99.90;;;;;;5087702;28;20375;-73
2023/08/29 04:15:35;;;;;;;1999.90;999.90;;;11.50;99.90;;;;;;5089517;28;20058;-73
2023/08/29 04:18:04;;;;;;;1999.90;999.90;;;11.40;99.90;;;;;;5087350;28;20478;-73
2023/08/29 04:20:31;;;;;;;1999.90;999.90;;;11.30;99.90;;;;;;5084429;28;20043;-72
2023/08/29 04:22:58;;;;;;;1999.90;999.90;;;11.50;99.90;;;;;;5090122;28;20040;-74
2023/08/29 04:25:26;;;;;;;1999.90;999.90;;;11.40;99.90;;;;;;5089433;28;20032;-72
2023/08/29 04:27:55;;;;;;;1999.90;999.90;;;11.40;99.90;;;;;;5088464;28;20081;-74
2023/08/29 04:30:21;;;;;;;1999.90;999.90;;;11.40;99.90;;;;;;5086172;28;20027;-72
2023/08/29 04:32:50;;;;;;;1999.90;999.90;;;11.40;99.90;;;;;;5089673;28;20040;-73
2023/08/29 04:35:17;;;;;;;1999.90;999.90;;;11.30;99.90;;;;;;5088928;28;20044;-74
2023/08/29 04:37:47;;;;;;;1999.90;999.90;;;11.30;99.90;;;;;;5086697;28;20078;-73
2023/08/29 04:40:13;;;;;;;1999.90;999.90;;;11.40;99.90;;;;;;5085815;28;20062;-73
2023/08/29 04:42:40;;;;;;;1999.90;999.90;;;11.30;99.90;;;;;;5092110;28;20390;-72
2023/08/29 04:45:07;;;;;;;1999.90;999.90;;;11.30;99.90;;;;;;5087656;28;20040;-74
2023/08/29 04:47:33;;;;;;;1999.90;999.90;;;11.40;99.90;;;;;;5087203;28;20060;-73
2023/08/29 04:50:00;;;;;;;1999.90;999.90;;;11.40;99.90;;;;;;5090342;28;20032;-73
2023/08/29 04:52:29;;;;;;;1999.90;999.90;;;11.50;99.90;;;;;;5090071;28;20035;-73
2023/08/29 04:54:55;;;;;;;1999.90;999.90;;;11.50;99.90;;;;;;5087582;28;20545;-73
2023/08/29 04:57:21;;;;;;;1999.90;999.90;;;11.50;99.90;;;;;;5090613;28;20034;-73
2023/08/29 04:59:48;;;;;;;1999.90;999.90;;;11.40;99.90;;;;;;5081299;28;20449;-74
2023/08/29 05:02:14;;;;;;;1999.90;999.90;;;11.40;99.90;;;;;;5086355;28;20040;-74
2023/08/29 05:04:42;;;;;;;1999.90;999.90;;;11.60;99.90;;;;;;5087092;28;20397;-73
2023/08/29 05:07:09;;;;;;;1999.90;999.90;;;11.50;99.90;;;;;;5085614;28;20016;-74
2023/08/29 05:09:35;;;;;;;1999.90;999.90;;;11.50;99.90;;;;;;5088022;28;20095;-73
2023/08/29 05:12:00;;;;;;;1999.90;999.90;;;11.60;99.90;;;;;;5086860;28;20120;-73
2023/08/29 05:14:26;;;;;;;1999.90;999.90;;;11.50;99.90;;;;;;5086552;28;20060;-73
2023/08/29 05:16:52;;;;;;;1999.90;999.90;;;11.50;99.90;;;;;;5087399;28;20031;-73
2023/08/29 05:19:17;;;;;;;1999.90;999.90;;;11.60;99.90;;;;;;5088684;28;20040;-74
2023/08/29 05:21:43;;;;;;;1999.90;999.90;;;11.50;99.90;;;;;;5083756;28;20044;-73
2023/08/29 05:24:10;;;;;;;1999.90;999.90;;;11.70;99.90;;;;;;5086816;28;20071;-73
2023/08/29 05:26:36;;;;;;;1999.90;999.90;;;11.60;99.90;;;;;;5088409;28;20043;-73
2023/08/29 05:29:01;;;;;;;1999.90;999.90;;;11.60;99.90;;;;;;5088763;28;20024;-73
2023/08/29 05:31:27;;;;;;;1999.90;999.90;;;11.60;99.90;;;;;;5088081;28;20106;-73
2023/08/29 05:33:52;;;;;;;1999.90;999.90;;;11.50;99.90;;;;;;5084364;28;20077;-73
2023/08/29 05:36:18;;;;;;;1999.90;999.90;;;11.60;99.90;;;;;;5087136;28;20036;-73
2023/08/29 05:38:44;;;;;;;1999.90;999.90;;;11.50;99.90;;;;;;5089755;28;20028;-71
2023/08/29 05:41:09;;;;;;;1999.90;999.90;;;11.50;99.90;;;;;;5084275;28;20040;-72
2023/08/29 05:43:35;;;;;;;1999.90;999.90;;;11.50;99.90;;;;;;5085322;28;20036;-73
2023/08/29 05:46:02;;;;;;;1999.90;999.90;;;11.50;99.90;;;;;;5086553;28;20131;-73
2023/08/29 05:48:28;;;;;;;1999.90;999.90;;;11.60;99.90;;;;;;5088310;28;20024;-72
2023/08/29 05:50:54;;;;;;;1999.90;999.90;;;11.60;99.90;;;;;;5088052;28;20054;-72
2023/08/29 05:53:19;;;;;;;1999.90;999.90;;;11.50;99.90;;;;;;5085983;28;20051;-74
2023/08/29 05:55:46;;;;;;;1999.90;999.90;;;11.50;99.90;;;;;;5088439;28;20043;-73
2023/08/29 05:58:11;;;;;;;1999.90;999.90;;;11.50;99.90;;;;;;5089577;28;20031;-73
2023/08/29 06:00:37;;;;;;;1999.90;999.90;;;11.50;99.90;;;;;;5087201;28;20036;-72
2023/08/29 06:03:07;;;;;;;1999.90;999.90;;;11.70;99.90;;;;;;5085754;28;20079;-73
2023/08/29 06:05:33;;;;;;;1999.90;999.90;;;11.60;99.90;;;;;;5088041;28;20035;-74
2023/08/29 06:08:02;;;;;;;1999.90;999.90;;;11.60;99.90;;;;;;5085288;28;20024;-72
2023/08/29 06:10:29;;;;;;;1999.90;999.90;;;11.60;99.90;;;;;;5087612;28;20032;-73
2023/08/29 06:12:55;;;;;;;1999.90;999.90;;;11.80;99.90;;;;;;5085064;28;20024;-73
2023/08/29 06:15:22;;;;;;;1999.90;999.90;;;11.60;99.90;;;;;;5086851;28;20140;-73
2023/08/29 06:17:48;;;;;;;1999.90;999.90;;;11.80;99.90;;;;;;5086351;28;20042;-72
2023/08/29 06:20:14;;;;;;;1999.90;999.90;;;11.80;99.90;;;;;;5085975;28;20129;-73
2023/08/29 06:22:40;;;;;;;1999.90;999.90;;;11.80;99.90;;;;;;5087197;28;20055;-73
2023/08/29 06:25:06;;;;;;;1999.90;999.90;;;11.80;99.90;;;;;;5088220;28;20121;-73
2023/08/29 06:27:33;;;;;;;1999.90;999.90;;;11.70;99.90;;;;;;5090874;28;20131;-74
2023/08/29 06:29:59;;;;;;;1999.90;999.90;;;11.70;99.90;;;;;;5090108;28;20036;-72
2023/08/29 06:32:24;;;;;;;1999.90;999.90;;;11.80;99.90;;;;;;5088520;28;20651;-73
2023/08/29 06:34:50;;;;;;;1999.90;999.90;;;11.80;99.90;;;;;;5092349;28;20036;-73
2023/08/29 06:37:16;;;;;;;1999.90;999.90;;;11.80;99.90;;;;;;5091908;28;20494;-72
2023/08/29 06:39:42;;;;;;;1999.90;999.90;;;11.80;99.90;;;;;;5092380;28;20042;-74
2023/08/29 06:42:08;;;;;;;1999.90;999.90;;;11.80;99.90;;;;;;5089458;28;20482;-72
2023/08/29 06:44:34;;;;;;;1999.90;999.90;;;11.90;99.90;;;;;;5089329;28;20032;-74
2023/08/29 06:46:59;;;;;;;1999.90;999.90;;;11.80;99.90;;;;;;5087535;28;20024;-73
2023/08/29 06:49:26;;;;;;;1999.90;999.90;;;11.80;99.90;;;;;;5090986;28;20028;-72
2023/08/29 06:51:52;;;;;;;1999.90;999.90;;;11.90;99.90;;;;;;5091516;28;20111;-73
2023/08/29 06:54:18;;;;;;;1999.90;999.90;;;11.90;99.90;;;;;;5091162;28;20066;-73
2023/08/29 06:56:43;;;;;;;1999.90;999.90;;;11.90;99.90;;;;;;5090242;28;20032;-73
2023/08/29 06:59:10;;;;;;;1999.90;999.90;;;11.80;99.90;;;;;;5089400;28;20036;-73
2023/08/29 07:01:37;;;;;;;1999.90;999.90;;;11.90;99.90;;;;;;5089207;28;20589;-73
2023/08/29 07:04:03;;;;;;;1999.90;999.90;;;11.80;99.90;;;;;;5091573;28;20039;-73
2023/08/29 07:06:29;;;;;;;1999.90;999.90;;;12.00;99.90;;;;;;5089512;28;20037;-73
2023/08/29 07:08:54;;;;;;;1999.90;999.90;;;12.00;99.90;;;;;;5089699;28;20059;-73
2023/08/29 07:11:20;;;;;;;1999.90;999.90;;;12.00;99.90;;;;;;5091874;28;20063;-73
2023/08/29 07:13:46;;;;;;;1999.90;999.90;;;12.00;99.90;;;;;;5087327;28;20040;-73
2023/08/29 07:16:11;;;;;;;1999.90;999.90;;;12.10;99.90;;;;;;5090995;28;20043;-73
2023/08/29 07:18:37;;;;;;;1999.90;999.90;;;12.20;99.90;;;;;;5091705;28;20028;-74
2023/08/29 07:21:03;;;;;;;1999.90;999.90;;;12.20;99.90;;;;;;5086777;28;20035;-73
2023/08/29 07:23:29;;;;;;;1999.90;999.90;;;12.00;99.90;;;;;;5073174;28;20040;-73
2023/08/29 07:25:55;;;;;;;1999.90;999.90;;;11.90;99.90;;;;;;5091718;28;20036;-73
2023/08/29 07:28:20;;;;;;;1999.90;999.90;;;11.90;99.90;;;;;;5090708;28;20036;-73
2023/08/29 07:30:48;;;;;;;1999.90;999.90;;;11.90;99.90;;;;;;5090167;28;20082;-73
2023/08/29 07:33:14;;;;;;;1999.90;999.90;;;11.80;99.90;;;;;;5091628;28;20394;-74
2023/08/29 07:35:41;;;;;;;1999.90;999.90;;;11.90;99.90;;;;;;5090911;28;20032;-74
2023/08/29 07:38:08;;;;;;;1999.90;999.90;;;11.80;99.90;;;;;;5091411;28;20113;-73
2023/08/29 07:40:34;;;;;;;1999.90;999.90;;;12.00;99.90;;;;;;5085704;28;20490;-74
2023/08/29 07:43:07;;;;;;;1999.90;999.90;;;12.30;99.90;;;;;;5089152;28;20032;-72
2023/08/29 07:45:33;;;;;;;1999.90;999.90;;;12.20;99.90;;;;;;5086671;28;20032;-73
2023/08/29 07:47:59;;;;;;;1999.90;999.90;;;12.40;99.90;;;;;;5087841;28;20097;-72
2023/08/29 07:50:26;;;;;;;1999.90;999.90;;;12.40;99.90;;;;;;5090942;28;20035;-73
2023/08/29 07:52:51;;;;;;;1999.90;999.90;;;12.70;99.90;;;;;;5089793;28;20036;-73
2023/08/29 07:55:17;;;;;;;1999.90;999.90;;;12.90;99.90;;;;;;5087490;28;20231;-72
2023/08/29 07:57:43;;;;;;;1999.90;999.90;;;12.70;99.90;;;;;;5090339;28;20036;-72
2023/08/29 08:00:10;;;;;;;1999.90;999.90;;;12.70;99.90;;;;;;5101931;28;20040;-73
2023/08/29 08:02:39;;;;;;;1999.90;999.90;;;12.80;99.90;;;;;;5086899;28;20039;-73
2023/08/29 08:05:10;;;;;;;1999.90;999.90;;;12.90;99.90;;;;;;5090855;28;20032;-73
2023/08/29 08:07:36;;;;;;;1999.90;999.90;;;12.90;99.90;;;;;;5086382;28;20020;-73
2023/08/29 08:10:04;;;;;;;1999.90;999.90;;;12.90;99.90;;;;;;5088805;28;20036;-73
2023/08/29 08:12:34;;;;;;;1999.90;999.90;;;13.00;99.90;;;;;;5087574;28;20110;-73
2023/08/29 08:15:00;;;;;;;1999.90;999.90;;;13.00;99.90;;;;;;5089149;28;20110;-73
2023/08/29 08:17:26;;;;;;;1999.90;999.90;;;13.20;99.90;;;;;;5088567;28;20036;-74
2023/08/29 08:19:52;;;;;;;1999.90;999.90;;;13.40;99.90;;;;;;5087710;28;20039;-73
2023/08/29 08:22:17;;;;;;;1999.90;999.90;;;13.40;99.90;;;;;;5086580;28;20036;-73
2023/08/29 08:24:43;;;;;;;1999.90;999.90;;;13.30;99.90;;;;;;5081400;28;20032;-73
2023/08/29 08:27:09;;;;;;;1999.90;999.90;;;13.50;99.90;;;;;;5083995;28;20035;-73
2023/08/29 08:29:34;;;;;;;1999.90;999.90;;;13.70;99.90;;;;;;5083706;28;20036;-72
2023/08/29 08:32:00;;;;;;;1999.90;999.90;;;13.60;99.90;;;;;;5089582;28;20410;-73
2023/08/29 08:34:26;;;;;;;1999.90;999.90;;;13.80;99.90;;;;;;5087473;28;20032;-72
2023/08/29 08:36:52;;;;;;;1999.90;999.90;;;13.70;99.90;;;;;;5088796;28;20032;-73
2023/08/29 08:39:18;;;;;;;1999.90;999.90;;;13.70;99.90;;;;;;5089063;28;20036;-73
2023/08/29 08:41:43;;;;;;;1999.90;999.90;;;13.60;99.90;;;;;;5085047;28;20024;-73
2023/08/29 08:44:12;;;;;;;1999.90;999.90;;;13.50;99.90;;;;;;5086348;28;20032;-73
2023/08/29 08:46:39;;;;;;;1999.90;999.90;;;13.40;99.90;;;;;;5085986;28;20573;-73
2023/08/29 08:49:06;;;;;;;1999.90;999.90;;;13.40;99.90;;;;;;5090160;28;20028;-73
2023/08/29 08:51:34;;;;;;;1999.90;999.90;;;13.40;99.90;;;;;;5089450;28;20031;-73
2023/08/29 08:54:00;;;;;;;1999.90;999.90;;;13.50;99.90;;;;;;5089250;28;20133;-73
2023/08/29 08:56:27;;;;;;;1999.90;999.90;;;13.40;99.90;;;;;;5086985;28;20038;-73
2023/08/29 08:58:54;;;;;;;1999.90;999.90;;;13.40;99.90;;;;;;5089530;28;20055;-73
2023/08/29 09:01:19;;;;;;;1999.90;999.90;;;13.40;99.90;;;;;;5086930;28;20466;-73
2023/08/29 09:03:45;;;;;;;1999.90;999.90;;;13.50;99.90;;;;;;5086749;28;20028;-72
2023/08/29 09:06:14;;;;;;;1999.90;999.90;;;13.60;99.90;;;;;;5086853;28;20029;-72
2023/08/29 09:08:40;;;;;;;1999.90;999.90;;;13.30;99.90;;;;;;5089361;28;20058;-72
2023/08/29 09:11:06;;;;;;;1999.90;999.90;;;13.20;99.90;;;;;;5088549;28;20027;-73
2023/08/29 09:13:32;;;;;;;1999.90;999.90;;;13.30;99.90;;;;;;5089621;28;20371;-73
2023/08/29 09:16:01;;;;;;;1999.90;999.90;;;13.20;99.90;;;;;;5088372;28;20474;-73
2023/08/29 09:18:31;;;;;;;1999.90;999.90;;;13.20;99.90;;;;;;5086792;28;20044;-73
2023/08/29 09:21:00;;;;;;;1999.90;999.90;;;13.10;99.90;;;;;;5085523;28;20270;-73
2023/08/29 09:23:36;;;;;;;1999.90;999.90;;;13.20;99.90;;;;;;5089581;28;20111;-72
2023/08/29 09:26:02;;;;;;;1999.90;999.90;;;13.40;99.90;;;;;;5088720;28;20028;-72
2023/08/29 09:28:30;;;;;;;1999.90;999.90;;;13.50;99.90;;;;;;5089595;28;20036;-72
2023/08/29 09:31:10;;;;;;;1999.90;999.90;;;13.60;99.90;;;;;;5088004;28;20031;-73
2023/08/29 09:33:37;;;;;;;1999.90;999.90;;;13.60;99.90;;;;;;5082331;28;20123;-73
2023/08/29 09:36:06;;;;;;;1999.90;999.90;;;13.70;99.90;;;;;;5082587;28;20036;-72
2023/08/29 09:38:35;;;;;;;1999.90;999.90;;;13.60;99.90;;;;;;5088957;28;20435;-72
2023/08/29 09:41:01;;;;;;;1999.90;999.90;;;13.60;99.90;;;;;;5084917;28;20032;-73
2023/08/29 09:43:28;;;;;;;1999.90;999.90;;;13.40;99.90;;;;;;5081181;28;20040;-73
2023/08/29 09:45:55;;;;;;;1999.90;999.90;;;13.40;99.90;;;;;;5084965;28;20076;-72
2023/08/29 09:48:21;;;;;;;1999.90;999.90;;;13.60;99.90;;;;;;5081376;28;20153;-73
2023/08/29 09:50:48;;;;;;;1999.90;999.90;;;13.60;99.90;;;;;;5087664;28;20500;-73
2023/08/29 09:53:20;;;;;;;1999.90;999.90;;;13.90;99.90;;;;;;5086526;28;20020;-73
2023/08/29 09:55:48;;;;;;;1999.90;999.90;;;13.80;99.90;;;;;;5083672;28;20100;-72
2023/08/29 09:58:16;;;;;;;1999.90;999.90;;;13.90;99.90;;;;;;5103694;28;20128;-72
2023/08/29 10:00:43;;;;;;;1999.90;999.90;;;14.10;99.90;;;;;;5091710;28;20032;-72
2023/08/29 10:03:10;;;;;;;1999.90;999.90;;;14.30;99.90;;;;;;5092050;28;20032;-73
2023/08/29 10:05:39;;;;;;;1999.90;999.90;;;13.90;99.90;;;;;;5091837;28;19924;-72
2023/08/29 10:08:16;;;;;;;1999.90;999.90;;;13.70;99.90;;;;;;5090617;28;20389;-72
2023/08/29 10:10:43;;;;;;;1999.90;999.90;;;13.80;99.90;;;;;;5090019;28;20115;-72
2023/08/29 10:13:10;;;;;;;1999.90;999.90;;;13.90;99.90;;;;;;5088734;28;20032;-73
2023/08/29 10:15:39;;;;;;;1999.90;999.90;;;13.80;99.90;;;;;;5083941;28;20036;-72
2023/08/29 10:18:06;;;;;;;1999.90;999.90;;;13.70;99.90;;;;;;5081986;28;20038;-72
2023/08/29 10:20:32;;;;;;;1999.90;999.90;;;13.70;99.90;;;;;;5086300;28;20442;-72
2023/08/29 10:23:01;;;;;;;1999.90;999.90;;;13.80;99.90;;;;;;5084222;28;20029;-73
2023/08/29 10:25:28;;;;;;;1999.90;999.90;;;13.50;99.90;;;;;;5082005;28;20509;-72
2023/08/29 10:27:54;;;;;;;1999.90;999.90;;;13.40;99.90;;;;;;5090927;28;20111;-72
2023/08/29 10:30:23;;;;;;;1999.90;999.90;;;13.50;99.90;;;;;;5091004;28;20026;-73
2023/08/29 10:32:49;;;;;;;1999.90;999.90;;;13.40;99.90;;;;;;5085384;28;20024;-72
2023/08/29 10:35:19;;;;;;;1999.90;999.90;;;13.60;99.90;;;;;;5092634;28;20039;-73
2023/08/29 10:37:51;;;;;;;1999.90;999.90;;;13.70;99.90;;;;;;5088217;28;20048;-74
2023/08/29 10:40:18;;;;;;;1999.90;999.90;;;13.60;99.90;;;;;;5086724;28;20047;-73
2023/08/29 10:42:53;;;;;;;1999.90;999.90;;;13.80;99.90;;;;;;5092248;28;20027;-74
2023/08/29 10:45:40;;;;;;;1999.90;999.90;;;13.90;99.90;;;;;;5091356;28;20126;-72
2023/08/29 10:48:06;;;;;;;1999.90;999.90;;;14.10;99.90;;;;;;5091356;28;20512;-74
2023/08/29 10:50:33;;;;;;;1999.90;999.90;;;14.50;99.90;;;;;;5091704;28;20032;-73
2023/08/29 10:52:59;;;;;;;1999.90;999.90;;;14.40;99.90;;;;;;5091423;28;20075;-73
2023/08/29 10:55:30;;;;;;;1999.90;999.90;;;14.40;99.90;;;;;;5087167;28;20036;-73
2023/08/29 10:57:58;;;;;;;1999.90;999.90;;;14.50;99.90;;;;;;5089627;28;20040;-73
2023/08/29 11:00:40;;;;;;;1999.90;999.90;;;14.40;99.90;;;;;;5088390;28;20474;-74
2023/08/29 11:03:06;;;;;;;1999.90;999.90;;;14.60;99.90;;;;;;5090199;28;20037;-72
2023/08/29 11:05:33;;;;;;;1999.90;999.90;;;14.90;99.90;;;;;;5094089;28;20025;-73
2023/08/29 11:08:19;;;;;;;1999.90;999.90;;;14.90;99.90;;;;;;5088579;28;20020;-73
2023/08/29 11:11:18;;;;;;;1999.90;999.90;;;14.50;99.90;;;;;;5087576;28;20066;-74
2023/08/29 11:14:04;;;;;;;1999.90;999.90;;;14.70;99.90;;;;;;5104374;28;20028;-72
2023/08/29 11:36:46;;;;;;;1999.90;999.90;;;14.80;99.90;;;;;;5089784;28;20771;-73
2023/08/29 11:39:12;;;;;;;1999.90;999.90;;;15.00;99.90;;;;;;5090630;28;20067;-73
2023/08/29 11:41:37;;;;;;;1999.90;999.90;;;15.00;99.90;;;;;;5092249;28;20557;-73
2023/08/29 11:44:03;;;;;;;1999.90;999.90;;;15.10;99.90;;;;;;5089097;28;20062;-73
2023/08/29 11:46:33;;;;;;;1999.90;999.90;;;14.80;99.90;;;;;;5093066;28;20043;-73
2023/08/29 11:48:59;;;;;;;1999.90;999.90;;;15.00;99.90;;;;;;5092617;28;20028;-72
2023/08/29 11:51:25;;;;;;;1999.90;999.90;;;14.60;99.90;;;;;;5088510;28;20032;-73
2023/08/29 11:53:51;;;;;;;1999.90;999.90;;;14.70;99.90;;;;;;5094173;28;20058;-73
2023/08/29 11:56:16;;;;;;;1999.90;999.90;;;15.10;99.90;;;;;;5090410;28;20036;-73
2023/08/29 11:58:42;;;;;;;1999.90;999.90;;;15.00;99.90;;;;;;5090958;28;20173;-73
2023/08/29 12:01:08;;;;;;;1999.90;999.90;;;15.10;99.90;;;;;;5090854;28;20093;-73
2023/08/29 12:03:37;;;;;;;1999.90;999.90;;;15.10;99.90;;;;;;5090045;28;20028;-73
2023/08/29 12:06:05;;;;;;;1999.90;999.90;;;14.60;99.90;;;;;;5089141;28;20110;-73
2023/08/29 12:08:40;;;;;;;1999.90;999.90;;;14.50;99.90;;;;;;5087628;28;20020;-72
2023/08/29 12:11:08;;;;;;;1999.90;999.90;;;14.20;99.90;;;;;;5088096;28;20027;-73
2023/08/29 12:13:35;;;;;;;1999.90;999.90;;;14.10;99.90;;;;;;5091629;28;20028;-72
2023/08/29 12:16:13;;;;;;;1999.90;999.90;;;14.10;99.90;;;;;;5085415;28;20032;-73
2023/08/29 12:18:40;;;;;;;1999.90;999.90;;;14.10;99.90;;;;;;5090100;28;20036;-73